sensor_id;sensor_type;location;lat;lon;timestamp;P1;durP1;ratioP1;P2;durP2;ratioP2
46078;SDS011;31820;51.880;-0.518;2022-10-18T00:00:45;12.35;;;7.07;;
46078;SDS011;31820;51.880;-0.518;2022-10-18T00:03:11;10.20;;;6.15;;
46078;SDS011;31820;51.880;-0.518;2022-10-18T00:05:36;9.02;;;6.18;;
46078;SDS011;31820;51.880;-0.518;2022-10-18T00:08:02;8.27;;;5.65;;
46078;SDS011;31820;51.880;-0.518;2022-10-18T00:10:27;8.10;;;6.40;;
46078;SDS011;31820;51.880;-0.518;2022-10-18T00:12:53;8.57;;;6.03;;
46078;SDS011;31820;51.880;-0.518;2022-10-18T00:15:18;9.57;;;6.68;;
46078;SDS011;31820;51.880;-0.518;2022-10-18T00:17:44;7.90;;;6.07;;
46078;SDS011;31820;51.880;-0.518;2022-10-18T00:20:10;8.20;;;5.43;;
46078;SDS011;31820;51.880;-0.518;2022-10-18T00:22:36;9.48;;;5.68;;
46078;SDS011;31820;51.880;-0.518;2022-10-18T00:25:04;10.40;;;6.05;;
46078;SDS011;31820;51.880;-0.518;2022-10-18T00:27:31;10.90;;;6.28;;
46078;SDS011;31820;51.880;-0.518;2022-10-18T00:29:57;9.20;;;5.93;;
46078;SDS011;31820;51.880;-0.518;2022-10-18T00:32:23;8.93;;;5.80;;
46078;SDS011;31820;51.880;-0.518;2022-10-18T00:34:49;8.63;;;5.70;;
46078;SDS011;31820;51.880;-0.518;2022-10-18T00:37:15;8.80;;;5.90;;
46078;SDS011;31820;51.880;-0.518;2022-10-18T00:39:41;8.48;;;6.07;;
46078;SDS011;31820;51.880;-0.518;2022-10-18T00:42:06;7.60;;;5.15;;
46078;SDS011;31820;51.880;-0.518;2022-10-18T00:47:10;7.95;;;5.28;;
46078;SDS011;31820;51.880;-0.518;2022-10-18T00:49:39;7.93;;;5.40;;
46078;SDS011;31820;51.880;-0.518;2022-10-18T00:52:12;7.40;;;5.00;;
46078;SDS011;31820;51.880;-0.518;2022-10-18T00:54:43;7.63;;;5.40;;
46078;SDS011;31820;51.880;-0.518;2022-10-18T00:57:10;9.02;;;5.15;;
46078;SDS011;31820;51.880;-0.518;2022-10-18T00:59:37;7.43;;;5.22;;
46078;SDS011;31820;51.880;-0.518;2022-10-18T01:02:03;7.30;;;5.13;;
46078;SDS011;31820;51.880;-0.518;2022-10-18T01:04:30;9.65;;;5.03;;
46078;SDS011;31820;51.880;-0.518;2022-10-18T01:17:45;6.45;;;4.32;;
46078;SDS011;31820;51.880;-0.518;2022-10-18T01:20:34;8.13;;;4.30;;
46078;SDS011;31820;51.880;-0.518;2022-10-18T01:23:19;6.45;;;4.50;;
46078;SDS011;31820;51.880;-0.518;2022-10-18T01:31:34;5.80;;;4.15;;
46078;SDS011;31820;51.880;-0.518;2022-10-18T01:34:05;6.75;;;4.25;;
46078;SDS011;31820;51.880;-0.518;2022-10-18T01:36:34;7.95;;;4.95;;
46078;SDS011;31820;51.880;-0.518;2022-10-18T01:39:04;6.38;;;4.68;;
46078;SDS011;31820;51.880;-0.518;2022-10-18T01:41:33;7.00;;;3.90;;
46078;SDS011;31820;51.880;-0.518;2022-10-18T01:44:02;6.57;;;4.07;;
46078;SDS011;31820;51.880;-0.518;2022-10-18T01:46:31;5.78;;;3.70;;
46078;SDS011;31820;51.880;-0.518;2022-10-18T01:48:57;6.03;;;4.22;;
46078;SDS011;31820;51.880;-0.518;2022-10-18T01:51:24;5.78;;;3.97;;
46078;SDS011;31820;51.880;-0.518;2022-10-18T01:53:52;5.55;;;3.90;;
46078;SDS011;31820;51.880;-0.518;2022-10-18T02:01:50;5.60;;;3.60;;
46078;SDS011;31820;51.880;-0.518;2022-10-18T02:07:06;6.35;;;3.70;;
46078;SDS011;31820;51.880;-0.518;2022-10-18T02:09:47;4.65;;;3.40;;
46078;SDS011;31820;51.880;-0.518;2022-10-18T02:12:21;5.72;;;3.28;;
46078;SDS011;31820;51.880;-0.518;2022-10-18T02:14:48;5.10;;;3.30;;
46078;SDS011;31820;51.880;-0.518;2022-10-18T02:17:15;6.07;;;3.60;;
46078;SDS011;31820;51.880;-0.518;2022-10-18T02:19:43;6.72;;;3.00;;
46078;SDS011;31820;51.880;-0.518;2022-10-18T02:22:12;5.22;;;3.35;;
46078;SDS011;31820;51.880;-0.518;2022-10-18T02:24:42;4.75;;;3.25;;
46078;SDS011;31820;51.880;-0.518;2022-10-18T02:27:10;4.63;;;3.15;;
46078;SDS011;31820;51.880;-0.518;2022-10-18T02:29:36;5.22;;;3.65;;
46078;SDS011;31820;51.880;-0.518;2022-10-18T02:37:30;6.10;;;3.17;;
46078;SDS011;31820;51.880;-0.518;2022-10-18T02:39:59;5.63;;;3.35;;
46078;SDS011;31820;51.880;-0.518;2022-10-18T02:42:31;5.05;;;3.15;;
46078;SDS011;31820;51.880;-0.518;2022-10-18T02:45:01;4.70;;;2.95;;
46078;SDS011;31820;51.880;-0.518;2022-10-18T02:47:27;4.30;;;2.78;;
46078;SDS011;31820;51.880;-0.518;2022-10-18T02:49:53;4.53;;;2.58;;
46078;SDS011;31820;51.880;-0.518;2022-10-18T02:52:18;4.22;;;2.50;;
46078;SDS011;31820;51.880;-0.518;2022-10-18T02:54:43;3.38;;;2.53;;
46078;SDS011;31820;51.880;-0.518;2022-10-18T02:57:09;4.65;;;2.67;;
46078;SDS011;31820;51.880;-0.518;2022-10-18T02:59:34;4.63;;;2.58;;
46078;SDS011;31820;51.880;-0.518;2022-10-18T03:02:00;5.75;;;2.83;;
46078;SDS011;31820;51.880;-0.518;2022-10-18T03:04:25;4.13;;;2.90;;
46078;SDS011;31820;51.880;-0.518;2022-10-18T03:06:51;4.47;;;2.70;;
46078;SDS011;31820;51.880;-0.518;2022-10-18T03:09:16;4.63;;;2.65;;
46078;SDS011;31820;51.880;-0.518;2022-10-18T03:11:42;5.20;;;2.92;;
46078;SDS011;31820;51.880;-0.518;2022-10-18T03:14:07;5.05;;;2.60;;
46078;SDS011;31820;51.880;-0.518;2022-10-18T03:16:33;5.05;;;2.55;;
46078;SDS011;31820;51.880;-0.518;2022-10-18T03:18:58;4.28;;;2.55;;
46078;SDS011;31820;51.880;-0.518;2022-10-18T03:21:24;3.47;;;2.10;;
46078;SDS011;31820;51.880;-0.518;2022-10-18T03:23:49;3.78;;;2.30;;
46078;SDS011;31820;51.880;-0.518;2022-10-18T03:26:14;5.40;;;2.55;;
46078;SDS011;31820;51.880;-0.518;2022-10-18T03:28:40;5.85;;;2.65;;
46078;SDS011;31820;51.880;-0.518;2022-10-18T03:31:06;5.15;;;2.40;;
46078;SDS011;31820;51.880;-0.518;2022-10-18T03:33:31;3.45;;;2.00;;
46078;SDS011;31820;51.880;-0.518;2022-10-18T03:35:57;3.63;;;2.22;;
46078;SDS011;31820;51.880;-0.518;2022-10-18T03:38:22;4.18;;;2.75;;
46078;SDS011;31820;51.880;-0.518;2022-10-18T03:40:48;3.60;;;2.00;;
46078;SDS011;31820;51.880;-0.518;2022-10-18T03:43:13;4.22;;;2.22;;
46078;SDS011;31820;51.880;-0.518;2022-10-18T03:45:39;3.42;;;2.00;;
46078;SDS011;31820;51.880;-0.518;2022-10-18T03:48:05;3.38;;;2.25;;
46078;SDS011;31820;51.880;-0.518;2022-10-18T03:50:30;3.85;;;2.38;;
46078;SDS011;31820;51.880;-0.518;2022-10-18T03:52:56;3.50;;;2.28;;
46078;SDS011;31820;51.880;-0.518;2022-10-18T03:55:22;4.43;;;2.10;;
46078;SDS011;31820;51.880;-0.518;2022-10-18T03:57:47;4.13;;;2.30;;
46078;SDS011;31820;51.880;-0.518;2022-10-18T04:00:13;3.20;;;2.03;;
46078;SDS011;31820;51.880;-0.518;2022-10-18T04:02:39;3.72;;;2.17;;
46078;SDS011;31820;51.880;-0.518;2022-10-18T04:05:04;2.95;;;1.90;;
46078;SDS011;31820;51.880;-0.518;2022-10-18T04:07:32;2.92;;;1.73;;
46078;SDS011;31820;51.880;-0.518;2022-10-18T04:09:58;2.97;;;1.85;;
46078;SDS011;31820;51.880;-0.518;2022-10-18T04:12:24;3.65;;;1.77;;
46078;SDS011;31820;51.880;-0.518;2022-10-18T04:14:49;4.57;;;2.05;;
46078;SDS011;31820;51.880;-0.518;2022-10-18T04:17:15;2.72;;;1.52;;
46078;SDS011;31820;51.880;-0.518;2022-10-18T04:19:40;3.63;;;1.92;;
46078;SDS011;31820;51.880;-0.518;2022-10-18T04:22:06;3.03;;;1.83;;
46078;SDS011;31820;51.880;-0.518;2022-10-18T04:24:32;4.07;;;1.75;;
46078;SDS011;31820;51.880;-0.518;2022-10-18T04:26:58;3.05;;;1.63;;
46078;SDS011;31820;51.880;-0.518;2022-10-18T04:29:23;3.58;;;1.80;;
46078;SDS011;31820;51.880;-0.518;2022-10-18T04:31:48;3.65;;;1.77;;
46078;SDS011;31820;51.880;-0.518;2022-10-18T04:34:14;3.20;;;1.70;;
46078;SDS011;31820;51.880;-0.518;2022-10-18T04:36:40;2.95;;;1.70;;
46078;SDS011;31820;51.880;-0.518;2022-10-18T04:39:05;4.00;;;2.10;;
46078;SDS011;31820;51.880;-0.518;2022-10-18T04:41:31;3.45;;;2.03;;
46078;SDS011;31820;51.880;-0.518;2022-10-18T04:43:56;3.53;;;2.00;;
46078;SDS011;31820;51.880;-0.518;2022-10-18T04:46:22;3.30;;;1.77;;
46078;SDS011;31820;51.880;-0.518;2022-10-18T04:48:47;3.70;;;1.52;;
46078;SDS011;31820;51.880;-0.518;2022-10-18T04:51:13;3.35;;;1.85;;
46078;SDS011;31820;51.880;-0.518;2022-10-18T04:53:38;3.30;;;1.67;;
46078;SDS011;31820;51.880;-0.518;2022-10-18T04:56:04;4.40;;;1.83;;
46078;SDS011;31820;51.880;-0.518;2022-10-18T04:58:29;3.65;;;1.77;;
46078;SDS011;31820;51.880;-0.518;2022-10-18T05:00:55;2.42;;;1.40;;
46078;SDS011;31820;51.880;-0.518;2022-10-18T05:03:20;3.22;;;1.60;;
46078;SDS011;31820;51.880;-0.518;2022-10-18T05:05:46;3.03;;;1.70;;
46078;SDS011;31820;51.880;-0.518;2022-10-18T05:08:11;2.50;;;1.33;;
46078;SDS011;31820;51.880;-0.518;2022-10-18T05:10:37;2.92;;;1.48;;
46078;SDS011;31820;51.880;-0.518;2022-10-18T05:13:02;2.50;;;1.42;;
46078;SDS011;31820;51.880;-0.518;2022-10-18T05:15:28;2.42;;;1.20;;
46078;SDS011;31820;51.880;-0.518;2022-10-18T05:17:53;3.42;;;1.40;;
46078;SDS011;31820;51.880;-0.518;2022-10-18T05:20:19;2.58;;;1.50;;
46078;SDS011;31820;51.880;-0.518;2022-10-18T05:22:45;3.05;;;1.58;;
46078;SDS011;31820;51.880;-0.518;2022-10-18T05:25:10;2.85;;;1.60;;
46078;SDS011;31820;51.880;-0.518;2022-10-18T05:27:36;3.05;;;1.40;;
46078;SDS011;31820;51.880;-0.518;2022-10-18T05:30:02;2.35;;;1.40;;
46078;SDS011;31820;51.880;-0.518;2022-10-18T05:32:28;1.95;;;1.30;;
46078;SDS011;31820;51.880;-0.518;2022-10-18T05:34:53;2.30;;;1.30;;
46078;SDS011;31820;51.880;-0.518;2022-10-18T05:37:19;2.58;;;1.20;;
46078;SDS011;31820;51.880;-0.518;2022-10-18T05:39:45;2.50;;;1.38;;
46078;SDS011;31820;51.880;-0.518;2022-10-18T05:42:11;1.85;;;1.25;;
46078;SDS011;31820;51.880;-0.518;2022-10-18T05:44:36;3.47;;;1.58;;
46078;SDS011;31820;51.880;-0.518;2022-10-18T05:47:02;4.25;;;1.30;;
46078;SDS011;31820;51.880;-0.518;2022-10-18T05:49:27;2.65;;;1.35;;
46078;SDS011;31820;51.880;-0.518;2022-10-18T05:51:53;2.80;;;1.23;;
46078;SDS011;31820;51.880;-0.518;2022-10-18T05:54:18;2.83;;;1.42;;
46078;SDS011;31820;51.880;-0.518;2022-10-18T05:56:45;2.55;;;1.35;;
46078;SDS011;31820;51.880;-0.518;2022-10-18T05:59:11;2.30;;;1.30;;
46078;SDS011;31820;51.880;-0.518;2022-10-18T06:01:37;1.77;;;1.05;;
46078;SDS011;31820;51.880;-0.518;2022-10-18T06:04:03;2.60;;;1.30;;
46078;SDS011;31820;51.880;-0.518;2022-10-18T06:06:29;2.33;;;1.40;;
46078;SDS011;31820;51.880;-0.518;2022-10-18T06:08:56;2.37;;;1.30;;
46078;SDS011;31820;51.880;-0.518;2022-10-18T06:11:21;2.03;;;1.20;;
46078;SDS011;31820;51.880;-0.518;2022-10-18T06:13:48;3.08;;;1.42;;
46078;SDS011;31820;51.880;-0.518;2022-10-18T06:16:15;2.00;;;1.30;;
46078;SDS011;31820;51.880;-0.518;2022-10-18T06:18:42;2.95;;;1.25;;
46078;SDS011;31820;51.880;-0.518;2022-10-18T06:21:07;2.55;;;1.20;;
46078;SDS011;31820;51.880;-0.518;2022-10-18T06:23:33;3.65;;;1.27;;
46078;SDS011;31820;51.880;-0.518;2022-10-18T06:25:59;2.83;;;1.20;;
46078;SDS011;31820;51.880;-0.518;2022-10-18T06:30:53;1.77;;;0.70;;
46078;SDS011;31820;51.880;-0.518;2022-10-18T06:33:18;1.63;;;0.80;;
46078;SDS011;31820;51.880;-0.518;2022-10-18T06:35:52;2.17;;;1.02;;
46078;SDS011;31820;51.880;-0.518;2022-10-18T06:38:22;2.35;;;1.17;;
46078;SDS011;31820;51.880;-0.518;2022-10-18T06:40:48;1.95;;;1.02;;
46078;SDS011;31820;51.880;-0.518;2022-10-18T06:43:14;2.72;;;1.20;;
46078;SDS011;31820;51.880;-0.518;2022-10-18T06:45:39;2.05;;;1.00;;
46078;SDS011;31820;51.880;-0.518;2022-10-18T06:48:05;2.25;;;1.08;;
46078;SDS011;31820;51.880;-0.518;2022-10-18T06:50:31;3.72;;;0.90;;
46078;SDS011;31820;51.880;-0.518;2022-10-18T06:52:56;2.13;;;1.33;;
46078;SDS011;31820;51.880;-0.518;2022-10-18T06:55:22;2.83;;;1.02;;
46078;SDS011;31820;51.880;-0.518;2022-10-18T06:57:47;1.75;;;0.90;;
46078;SDS011;31820;51.880;-0.518;2022-10-18T07:00:13;1.75;;;1.08;;
46078;SDS011;31820;51.880;-0.518;2022-10-18T07:02:39;3.00;;;1.30;;
46078;SDS011;31820;51.880;-0.518;2022-10-18T07:05:08;1.98;;;1.00;;
46078;SDS011;31820;51.880;-0.518;2022-10-18T07:07:35;1.63;;;0.93;;
46078;SDS011;31820;51.880;-0.518;2022-10-18T07:10:02;1.88;;;1.25;;
46078;SDS011;31820;51.880;-0.518;2022-10-18T07:12:29;2.78;;;1.10;;
46078;SDS011;31820;51.880;-0.518;2022-10-18T07:14:55;1.88;;;0.95;;
46078;SDS011;31820;51.880;-0.518;2022-10-18T07:17:21;1.92;;;1.00;;
46078;SDS011;31820;51.880;-0.518;2022-10-18T07:19:46;1.88;;;1.00;;
46078;SDS011;31820;51.880;-0.518;2022-10-18T07:22:12;1.40;;;0.80;;
46078;SDS011;31820;51.880;-0.518;2022-10-18T07:24:37;2.17;;;0.85;;
46078;SDS011;31820;51.880;-0.518;2022-10-18T07:27:03;2.40;;;0.95;;
46078;SDS011;31820;51.880;-0.518;2022-10-18T07:29:29;1.58;;;0.80;;
46078;SDS011;31820;51.880;-0.518;2022-10-18T07:31:54;1.70;;;1.05;;
46078;SDS011;31820;51.880;-0.518;2022-10-18T07:34:20;1.88;;;0.80;;
46078;SDS011;31820;51.880;-0.518;2022-10-18T07:36:45;2.90;;;0.90;;
46078;SDS011;31820;51.880;-0.518;2022-10-18T07:39:11;1.92;;;0.82;;
46078;SDS011;31820;51.880;-0.518;2022-10-18T07:41:36;1.55;;;0.73;;
46078;SDS011;31820;51.880;-0.518;2022-10-18T07:44:02;1.27;;;0.60;;
46078;SDS011;31820;51.880;-0.518;2022-10-18T07:46:28;2.80;;;1.05;;
46078;SDS011;31820;51.880;-0.518;2022-10-18T07:48:53;1.77;;;0.95;;
46078;SDS011;31820;51.880;-0.518;2022-10-18T07:51:19;2.08;;;0.73;;
46078;SDS011;31820;51.880;-0.518;2022-10-18T07:53:46;3.40;;;1.00;;
46078;SDS011;31820;51.880;-0.518;2022-10-18T07:56:13;1.77;;;0.93;;
46078;SDS011;31820;51.880;-0.518;2022-10-18T07:58:44;1.35;;;0.70;;
46078;SDS011;31820;51.880;-0.518;2022-10-18T08:01:12;2.35;;;0.80;;
46078;SDS011;31820;51.880;-0.518;2022-10-18T08:03:38;2.03;;;0.80;;
46078;SDS011;31820;51.880;-0.518;2022-10-18T08:06:05;2.15;;;0.80;;
46078;SDS011;31820;51.880;-0.518;2022-10-18T08:08:33;1.63;;;0.70;;
46078;SDS011;31820;51.880;-0.518;2022-10-18T08:11:02;2.20;;;1.00;;
46078;SDS011;31820;51.880;-0.518;2022-10-18T08:13:30;1.58;;;1.00;;
46078;SDS011;31820;51.880;-0.518;2022-10-18T08:16:05;1.67;;;0.85;;
46078;SDS011;31820;51.880;-0.518;2022-10-18T08:18:33;2.58;;;0.80;;
46078;SDS011;31820;51.880;-0.518;2022-10-18T08:20:59;1.60;;;0.80;;
46078;SDS011;31820;51.880;-0.518;2022-10-18T08:23:26;4.25;;;1.48;;
46078;SDS011;31820;51.880;-0.518;2022-10-18T08:25:51;3.03;;;1.13;;
46078;SDS011;31820;51.880;-0.518;2022-10-18T08:28:17;2.75;;;0.73;;
46078;SDS011;31820;51.880;-0.518;2022-10-18T08:30:42;3.65;;;0.75;;
46078;SDS011;31820;51.880;-0.518;2022-10-18T08:33:08;1.98;;;0.70;;
46078;SDS011;31820;51.880;-0.518;2022-10-18T08:35:34;2.15;;;0.90;;
46078;SDS011;31820;51.880;-0.518;2022-10-18T08:38:00;2.47;;;1.13;;
46078;SDS011;31820;51.880;-0.518;2022-10-18T08:40:26;2.05;;;0.90;;
46078;SDS011;31820;51.880;-0.518;2022-10-18T08:42:59;1.23;;;0.60;;
46078;SDS011;31820;51.880;-0.518;2022-10-18T08:45:40;5.35;;;1.50;;
46078;SDS011;31820;51.880;-0.518;2022-10-18T08:51:13;2.35;;;0.82;;
46078;SDS011;31820;51.880;-0.518;2022-10-18T08:53:51;4.00;;;1.10;;
46078;SDS011;31820;51.880;-0.518;2022-10-18T08:56:28;1.55;;;0.80;;
46078;SDS011;31820;51.880;-0.518;2022-10-18T08:58:53;4.20;;;1.00;;
46078;SDS011;31820;51.880;-0.518;2022-10-18T09:15:05;3.13;;;0.98;;
46078;SDS011;31820;51.880;-0.518;2022-10-18T09:20:48;3.63;;;0.90;;
46078;SDS011;31820;51.880;-0.518;2022-10-18T09:26:01;2.30;;;0.80;;
46078;SDS011;31820;51.880;-0.518;2022-10-18T09:28:56;4.07;;;1.23;;
46078;SDS011;31820;51.880;-0.518;2022-10-18T09:31:45;4.13;;;0.80;;
46078;SDS011;31820;51.880;-0.518;2022-10-18T09:36:49;3.90;;;1.52;;
46078;SDS011;31820;51.880;-0.518;2022-10-18T09:39:17;2.05;;;0.70;;
46078;SDS011;31820;51.880;-0.518;2022-10-18T09:41:57;2.05;;;0.70;;
46078;SDS011;31820;51.880;-0.518;2022-10-18T09:44:30;3.30;;;0.75;;
46078;SDS011;31820;51.880;-0.518;2022-10-18T09:49:40;3.40;;;0.95;;
46078;SDS011;31820;51.880;-0.518;2022-10-18T09:52:12;4.47;;;1.05;;
46078;SDS011;31820;51.880;-0.518;2022-10-18T09:54:59;2.50;;;1.10;;
46078;SDS011;31820;51.880;-0.518;2022-10-18T09:57:47;4.30;;;1.10;;
46078;SDS011;31820;51.880;-0.518;2022-10-18T10:00:20;4.07;;;1.10;;
46078;SDS011;31820;51.880;-0.518;2022-10-18T10:02:50;3.00;;;0.95;;
46078;SDS011;31820;51.880;-0.518;2022-10-18T10:05:15;1.90;;;0.75;;
46078;SDS011;31820;51.880;-0.518;2022-10-18T10:07:45;2.00;;;0.77;;
46078;SDS011;31820;51.880;-0.518;2022-10-18T10:10:24;1.15;;;0.50;;
46078;SDS011;31820;51.880;-0.518;2022-10-18T10:13:06;3.67;;;0.70;;
46078;SDS011;31820;51.880;-0.518;2022-10-18T10:15:54;3.78;;;1.05;;
46078;SDS011;31820;51.880;-0.518;2022-10-18T10:18:25;4.30;;;0.90;;
46078;SDS011;31820;51.880;-0.518;2022-10-18T10:20:55;3.75;;;1.10;;
46078;SDS011;31820;51.880;-0.518;2022-10-18T10:26:22;2.67;;;1.00;;
46078;SDS011;31820;51.880;-0.518;2022-10-18T10:28:53;2.78;;;0.70;;
46078;SDS011;31820;51.880;-0.518;2022-10-18T10:31:31;4.97;;;0.90;;
46078;SDS011;31820;51.880;-0.518;2022-10-18T10:36:46;3.38;;;0.60;;
46078;SDS011;31820;51.880;-0.518;2022-10-18T10:39:14;3.65;;;0.90;;
46078;SDS011;31820;51.880;-0.518;2022-10-18T10:41:45;2.63;;;0.60;;
46078;SDS011;31820;51.880;-0.518;2022-10-18T10:44:13;4.00;;;0.80;;
46078;SDS011;31820;51.880;-0.518;2022-10-18T10:46:41;2.03;;;0.60;;
46078;SDS011;31820;51.880;-0.518;2022-10-18T10:49:28;2.25;;;0.55;;
46078;SDS011;31820;51.880;-0.518;2022-10-18T10:52:17;2.53;;;0.68;;
46078;SDS011;31820;51.880;-0.518;2022-10-18T10:54:44;3.15;;;0.85;;
46078;SDS011;31820;51.880;-0.518;2022-10-18T10:59:50;1.45;;;0.63;;
46078;SDS011;31820;51.880;-0.518;2022-10-18T11:05:41;2.55;;;0.73;;
46078;SDS011;31820;51.880;-0.518;2022-10-18T11:08:07;4.47;;;0.80;;
46078;SDS011;31820;51.880;-0.518;2022-10-18T11:10:38;1.55;;;0.57;;
46078;SDS011;31820;51.880;-0.518;2022-10-18T11:15:59;3.67;;;0.90;;
46078;SDS011;31820;51.880;-0.518;2022-10-18T11:18:33;3.97;;;0.68;;
46078;SDS011;31820;51.880;-0.518;2022-10-18T11:21:11;3.65;;;0.80;;
46078;SDS011;31820;51.880;-0.518;2022-10-18T11:23:41;3.72;;;1.17;;
46078;SDS011;31820;51.880;-0.518;2022-10-18T11:31:16;6.45;;;0.88;;
46078;SDS011;31820;51.880;-0.518;2022-10-18T11:36:41;5.45;;;0.98;;
46078;SDS011;31820;51.880;-0.518;2022-10-18T11:39:35;2.83;;;0.77;;
46078;SDS011;31820;51.880;-0.518;2022-10-18T11:45:17;4.05;;;0.70;;
46078;SDS011;31820;51.880;-0.518;2022-10-18T11:50:46;5.15;;;0.98;;
46078;SDS011;31820;51.880;-0.518;2022-10-18T11:55:54;2.97;;;0.93;;
46078;SDS011;31820;51.880;-0.518;2022-10-18T11:59:03;4.95;;;1.00;;
46078;SDS011;31820;51.880;-0.518;2022-10-18T12:01:50;3.65;;;1.15;;
46078;SDS011;31820;51.880;-0.518;2022-10-18T12:04:23;5.60;;;1.20;;
46078;SDS011;31820;51.880;-0.518;2022-10-18T12:06:55;4.75;;;0.82;;
46078;SDS011;31820;51.880;-0.518;2022-10-18T12:09:31;5.25;;;1.70;;
46078;SDS011;31820;51.880;-0.518;2022-10-18T12:14:43;4.18;;;1.10;;
46078;SDS011;31820;51.880;-0.518;2022-10-18T12:17:18;4.15;;;1.08;;
46078;SDS011;31820;51.880;-0.518;2022-10-18T12:19:49;3.25;;;0.75;;
46078;SDS011;31820;51.880;-0.518;2022-10-18T12:22:20;3.28;;;0.93;;
46078;SDS011;31820;51.880;-0.518;2022-10-18T12:24:50;7.32;;;1.00;;
46078;SDS011;31820;51.880;-0.518;2022-10-18T12:27:16;2.63;;;0.90;;
46078;SDS011;31820;51.880;-0.518;2022-10-18T12:29:48;3.63;;;0.90;;
46078;SDS011;31820;51.880;-0.518;2022-10-18T12:32:25;3.97;;;0.70;;
46078;SDS011;31820;51.880;-0.518;2022-10-18T12:35:00;3.33;;;0.60;;
46078;SDS011;31820;51.880;-0.518;2022-10-18T12:37:37;4.15;;;0.93;;
46078;SDS011;31820;51.880;-0.518;2022-10-18T12:43:07;2.47;;;0.80;;
46078;SDS011;31820;51.880;-0.518;2022-10-18T12:45:45;2.47;;;0.60;;
46078;SDS011;31820;51.880;-0.518;2022-10-18T12:48:24;3.95;;;0.90;;
46078;SDS011;31820;51.880;-0.518;2022-10-18T12:51:16;5.10;;;0.80;;
46078;SDS011;31820;51.880;-0.518;2022-10-18T12:58:52;2.65;;;0.60;;
46078;SDS011;31820;51.880;-0.518;2022-10-18T13:12:50;5.53;;;0.80;;
46078;SDS011;31820;51.880;-0.518;2022-10-18T13:21:14;2.47;;;0.77;;
46078;SDS011;31820;51.880;-0.518;2022-10-18T13:23:45;2.72;;;0.63;;
46078;SDS011;31820;51.880;-0.518;2022-10-18T13:34:58;4.60;;;0.73;;
46078;SDS011;31820;51.880;-0.518;2022-10-18T13:37:23;3.78;;;0.63;;
46078;SDS011;31820;51.880;-0.518;2022-10-18T13:39:50;2.20;;;0.68;;
46078;SDS011;31820;51.880;-0.518;2022-10-18T13:47:56;4.38;;;0.80;;
46078;SDS011;31820;51.880;-0.518;2022-10-18T13:50:42;2.95;;;0.80;;
46078;SDS011;31820;51.880;-0.518;2022-10-18T13:56:28;4.53;;;0.80;;
46078;SDS011;31820;51.880;-0.518;2022-10-18T13:59:03;2.65;;;0.55;;
46078;SDS011;31820;51.880;-0.518;2022-10-18T14:01:48;2.35;;;0.82;;
46078;SDS011;31820;51.880;-0.518;2022-10-18T14:07:24;2.25;;;0.68;;
46078;SDS011;31820;51.880;-0.518;2022-10-18T14:09:51;2.33;;;0.65;;
46078;SDS011;31820;51.880;-0.518;2022-10-18T14:12:29;1.92;;;0.45;;
46078;SDS011;31820;51.880;-0.518;2022-10-18T14:20:25;3.63;;;0.70;;
46078;SDS011;31820;51.880;-0.518;2022-10-18T14:23:13;1.92;;;0.60;;
46078;SDS011;31820;51.880;-0.518;2022-10-18T14:25:39;4.30;;;0.73;;
46078;SDS011;31820;51.880;-0.518;2022-10-18T14:30:34;2.22;;;0.50;;
46078;SDS011;31820;51.880;-0.518;2022-10-18T14:33:00;4.53;;;1.35;;
46078;SDS011;31820;51.880;-0.518;2022-10-18T14:35:27;3.22;;;0.82;;
46078;SDS011;31820;51.880;-0.518;2022-10-18T14:37:55;2.35;;;0.73;;
46078;SDS011;31820;51.880;-0.518;2022-10-18T14:42:54;2.10;;;0.80;;
46078;SDS011;31820;51.880;-0.518;2022-10-18T14:45:20;3.30;;;0.70;;
46078;SDS011;31820;51.880;-0.518;2022-10-18T14:47:46;3.45;;;0.80;;
46078;SDS011;31820;51.880;-0.518;2022-10-18T14:50:22;2.90;;;0.68;;
46078;SDS011;31820;51.880;-0.518;2022-10-18T14:52:51;2.97;;;0.65;;
46078;SDS011;31820;51.880;-0.518;2022-10-18T14:55:23;3.05;;;0.65;;
46078;SDS011;31820;51.880;-0.518;2022-10-18T14:57:52;2.80;;;0.70;;
46078;SDS011;31820;51.880;-0.518;2022-10-18T15:00:20;2.80;;;0.80;;
46078;SDS011;31820;51.880;-0.518;2022-10-18T15:02:49;1.42;;;0.30;;
46078;SDS011;31820;51.880;-0.518;2022-10-18T15:07:45;3.67;;;0.77;;
46078;SDS011;31820;51.880;-0.518;2022-10-18T15:10:13;2.13;;;0.70;;
46078;SDS011;31820;51.880;-0.518;2022-10-18T15:12:45;3.42;;;0.82;;
46078;SDS011;31820;51.880;-0.518;2022-10-18T15:15:33;4.32;;;1.15;;
46078;SDS011;31820;51.880;-0.518;2022-10-18T15:17:59;1.83;;;0.50;;
46078;SDS011;31820;51.880;-0.518;2022-10-18T15:20:27;2.28;;;0.73;;
46078;SDS011;31820;51.880;-0.518;2022-10-18T15:25:47;3.80;;;0.73;;
46078;SDS011;31820;51.880;-0.518;2022-10-18T15:28:27;2.35;;;0.60;;
46078;SDS011;31820;51.880;-0.518;2022-10-18T15:30:55;3.15;;;0.70;;
46078;SDS011;31820;51.880;-0.518;2022-10-18T15:33:23;2.17;;;0.90;;
46078;SDS011;31820;51.880;-0.518;2022-10-18T15:35:50;3.45;;;0.70;;
46078;SDS011;31820;51.880;-0.518;2022-10-18T15:38:27;2.58;;;0.60;;
46078;SDS011;31820;51.880;-0.518;2022-10-18T15:41:00;2.33;;;0.50;;
46078;SDS011;31820;51.880;-0.518;2022-10-18T15:45:56;2.15;;;0.60;;
46078;SDS011;31820;51.880;-0.518;2022-10-18T15:48:33;3.33;;;0.80;;
46078;SDS011;31820;51.880;-0.518;2022-10-18T15:51:03;2.58;;;0.70;;
46078;SDS011;31820;51.880;-0.518;2022-10-18T15:53:32;3.55;;;0.65;;
46078;SDS011;31820;51.880;-0.518;2022-10-18T15:56:09;2.53;;;0.65;;
46078;SDS011;31820;51.880;-0.518;2022-10-18T15:58:49;2.60;;;0.50;;
46078;SDS011;31820;51.880;-0.518;2022-10-18T16:01:36;1.67;;;0.60;;
46078;SDS011;31820;51.880;-0.518;2022-10-18T16:04:16;1.85;;;0.43;;
46078;SDS011;31820;51.880;-0.518;2022-10-18T16:06:54;3.08;;;1.00;;
46078;SDS011;31820;51.880;-0.518;2022-10-18T16:09:21;2.15;;;0.70;;
46078;SDS011;31820;51.880;-0.518;2022-10-18T16:11:48;2.35;;;0.40;;
46078;SDS011;31820;51.880;-0.518;2022-10-18T16:14:15;3.75;;;0.52;;
46078;SDS011;31820;51.880;-0.518;2022-10-18T16:16:42;2.50;;;0.60;;
46078;SDS011;31820;51.880;-0.518;2022-10-18T16:19:09;7.90;;;1.00;;
46078;SDS011;31820;51.880;-0.518;2022-10-18T16:21:39;2.70;;;0.75;;
46078;SDS011;31820;51.880;-0.518;2022-10-18T16:24:06;3.50;;;1.00;;
46078;SDS011;31820;51.880;-0.518;2022-10-18T16:26:32;4.13;;;0.93;;
46078;SDS011;31820;51.880;-0.518;2022-10-18T16:28:58;5.97;;;0.77;;
46078;SDS011;31820;51.880;-0.518;2022-10-18T16:31:28;3.45;;;0.95;;
46078;SDS011;31820;51.880;-0.518;2022-10-18T16:33:56;3.60;;;0.73;;
46078;SDS011;31820;51.880;-0.518;2022-10-18T16:36:23;3.33;;;0.95;;
46078;SDS011;31820;51.880;-0.518;2022-10-18T16:38:50;5.13;;;0.80;;
46078;SDS011;31820;51.880;-0.518;2022-10-18T16:41:16;3.65;;;0.70;;
46078;SDS011;31820;51.880;-0.518;2022-10-18T16:43:43;3.65;;;0.70;;
46078;SDS011;31820;51.880;-0.518;2022-10-18T16:46:12;5.07;;;0.60;;
46078;SDS011;31820;51.880;-0.518;2022-10-18T16:48:41;2.67;;;0.65;;
46078;SDS011;31820;51.880;-0.518;2022-10-18T16:51:07;3.72;;;0.75;;
46078;SDS011;31820;51.880;-0.518;2022-10-18T16:53:34;2.63;;;0.50;;
46078;SDS011;31820;51.880;-0.518;2022-10-18T16:56:00;3.72;;;0.60;;
46078;SDS011;31820;51.880;-0.518;2022-10-18T17:00:53;2.58;;;0.50;;
46078;SDS011;31820;51.880;-0.518;2022-10-18T17:03:19;1.95;;;0.85;;
46078;SDS011;31820;51.880;-0.518;2022-10-18T17:05:45;2.97;;;0.65;;
46078;SDS011;31820;51.880;-0.518;2022-10-18T17:08:20;1.48;;;0.40;;
46078;SDS011;31820;51.880;-0.518;2022-10-18T17:10:47;1.55;;;0.50;;
46078;SDS011;31820;51.880;-0.518;2022-10-18T17:13:17;3.38;;;1.02;;
46078;SDS011;31820;51.880;-0.518;2022-10-18T17:15:43;2.00;;;0.75;;
46078;SDS011;31820;51.880;-0.518;2022-10-18T17:18:13;3.13;;;0.90;;
46078;SDS011;31820;51.880;-0.518;2022-10-18T17:20:41;1.75;;;0.47;;
46078;SDS011;31820;51.880;-0.518;2022-10-18T17:23:08;3.03;;;0.52;;
46078;SDS011;31820;51.880;-0.518;2022-10-18T17:25:35;2.85;;;0.77;;
46078;SDS011;31820;51.880;-0.518;2022-10-18T17:28:01;2.45;;;0.45;;